Atascosa, Texas
Current Conditions -  °F | °C
As of 11:35 AM on Monday 24 Nov 2014 (Local Time) from KCVB Reporting Station
Clear Clear  
Wind Chill: 17°   Ceiling: Unl
Heat Index: 17°   Visibility: 7mi
Dew Point: -1°   Wind: 7mph
Humidity: 30%   Direction: 330°NNW
Pressure: 30.13"   Gusts: NA
Location:  29.28°N, 98.74°W
Report Text: KCVB 241735Z AUTO 33006KT 7SM CLR 17/M01 A3013 RMK AO2 T01671009
Loading
Personal Weather Stations






























Interactive Weather Map New forecast layout! Learn more

10-Day Weather Forecast

Advertisements
Track Severe Weather on mobile